sensor_id;sensor_type;location;lat;lon;timestamp;P1;durP1;ratioP1;P2;durP2;ratioP2
44810;SDS011;30526;52.184;4.476;2023-08-07T00:01:22;15.43;;;3.33;;
44810;SDS011;30526;52.184;4.476;2023-08-07T00:03:48;16.00;;;2.60;;
44810;SDS011;30526;52.184;4.476;2023-08-07T00:06:14;15.55;;;2.80;;
44810;SDS011;30526;52.184;4.476;2023-08-07T00:08:40;13.10;;;2.45;;
44810;SDS011;30526;52.184;4.476;2023-08-07T00:11:07;13.27;;;2.55;;
44810;SDS011;30526;52.184;4.476;2023-08-07T00:13:33;11.13;;;2.63;;
44810;SDS011;30526;52.184;4.476;2023-08-07T00:15:59;15.13;;;2.60;;
44810;SDS011;30526;52.184;4.476;2023-08-07T00:18:25;9.65;;;2.35;;
44810;SDS011;30526;52.184;4.476;2023-08-07T00:20:51;17.17;;;2.97;;
44810;SDS011;30526;52.184;4.476;2023-08-07T00:23:17;12.40;;;2.38;;
44810;SDS011;30526;52.184;4.476;2023-08-07T00:25:43;21.40;;;2.50;;
44810;SDS011;30526;52.184;4.476;2023-08-07T00:28:09;23.15;;;3.17;;
44810;SDS011;30526;52.184;4.476;2023-08-07T00:30:35;12.20;;;2.58;;
44810;SDS011;30526;52.184;4.476;2023-08-07T00:33:01;10.48;;;2.70;;
44810;SDS011;30526;52.184;4.476;2023-08-07T00:35:27;17.35;;;2.50;;
44810;SDS011;30526;52.184;4.476;2023-08-07T00:37:54;21.23;;;2.78;;
44810;SDS011;30526;52.184;4.476;2023-08-07T00:40:20;12.77;;;3.10;;
44810;SDS011;30526;52.184;4.476;2023-08-07T00:42:46;9.93;;;2.20;;
44810;SDS011;30526;52.184;4.476;2023-08-07T00:45:12;13.70;;;2.58;;
44810;SDS011;30526;52.184;4.476;2023-08-07T00:47:38;12.80;;;2.85;;
44810;SDS011;30526;52.184;4.476;2023-08-07T00:50:04;17.83;;;3.43;;
44810;SDS011;30526;52.184;4.476;2023-08-07T00:52:31;15.73;;;2.27;;
44810;SDS011;30526;52.184;4.476;2023-08-07T00:54:57;23.42;;;3.03;;
44810;SDS011;30526;52.184;4.476;2023-08-07T00:57:24;17.45;;;2.55;;
44810;SDS011;30526;52.184;4.476;2023-08-07T00:59:50;14.05;;;2.92;;
44810;SDS011;30526;52.184;4.476;2023-08-07T01:02:16;17.88;;;2.47;;
44810;SDS011;30526;52.184;4.476;2023-08-07T01:04:42;11.95;;;2.60;;
44810;SDS011;30526;52.184;4.476;2023-08-07T01:07:08;21.40;;;2.95;;
44810;SDS011;30526;52.184;4.476;2023-08-07T01:09:35;24.20;;;2.90;;
44810;SDS011;30526;52.184;4.476;2023-08-07T01:17:13;16.33;;;2.67;;
44810;SDS011;30526;52.184;4.476;2023-08-07T01:19:40;10.25;;;2.83;;
44810;SDS011;30526;52.184;4.476;2023-08-07T01:22:07;15.50;;;2.17;;
44810;SDS011;30526;52.184;4.476;2023-08-07T01:24:34;9.30;;;2.15;;
44810;SDS011;30526;52.184;4.476;2023-08-07T01:27:03;14.07;;;3.17;;
44810;SDS011;30526;52.184;4.476;2023-08-07T01:29:40;17.30;;;3.67;;
44810;SDS011;30526;52.184;4.476;2023-08-07T01:32:08;16.65;;;2.78;;
44810;SDS011;30526;52.184;4.476;2023-08-07T01:34:34;10.43;;;2.40;;
44810;SDS011;30526;52.184;4.476;2023-08-07T01:37:01;14.95;;;2.30;;
44810;SDS011;30526;52.184;4.476;2023-08-07T01:39:28;14.18;;;2.50;;
44810;SDS011;30526;52.184;4.476;2023-08-07T01:41:54;13.68;;;3.13;;
44810;SDS011;30526;52.184;4.476;2023-08-07T01:44:21;24.10;;;3.00;;
44810;SDS011;30526;52.184;4.476;2023-08-07T01:46:47;11.15;;;2.97;;
44810;SDS011;30526;52.184;4.476;2023-08-07T01:49:13;8.85;;;2.78;;
44810;SDS011;30526;52.184;4.476;2023-08-07T01:51:39;16.25;;;2.63;;
44810;SDS011;30526;52.184;4.476;2023-08-07T01:54:05;14.85;;;2.75;;
44810;SDS011;30526;52.184;4.476;2023-08-07T01:56:31;11.68;;;2.50;;
44810;SDS011;30526;52.184;4.476;2023-08-07T01:58:57;12.35;;;2.65;;
44810;SDS011;30526;52.184;4.476;2023-08-07T02:01:23;14.95;;;2.80;;
44810;SDS011;30526;52.184;4.476;2023-08-07T02:03:49;16.20;;;3.30;;
44810;SDS011;30526;52.184;4.476;2023-08-07T02:06:15;18.45;;;3.25;;
44810;SDS011;30526;52.184;4.476;2023-08-07T02:08:41;14.90;;;2.65;;
44810;SDS011;30526;52.184;4.476;2023-08-07T02:11:07;16.23;;;2.80;;
44810;SDS011;30526;52.184;4.476;2023-08-07T02:13:33;16.65;;;3.17;;
44810;SDS011;30526;52.184;4.476;2023-08-07T02:15:59;18.10;;;3.47;;
44810;SDS011;30526;52.184;4.476;2023-08-07T02:18:25;17.63;;;2.60;;
44810;SDS011;30526;52.184;4.476;2023-08-07T02:20:51;14.13;;;2.85;;
44810;SDS011;30526;52.184;4.476;2023-08-07T02:23:17;13.77;;;3.10;;
44810;SDS011;30526;52.184;4.476;2023-08-07T02:25:43;22.92;;;3.38;;
44810;SDS011;30526;52.184;4.476;2023-08-07T02:28:10;8.90;;;2.30;;
44810;SDS011;30526;52.184;4.476;2023-08-07T02:30:36;20.38;;;3.13;;
44810;SDS011;30526;52.184;4.476;2023-08-07T02:33:02;19.45;;;3.35;;
44810;SDS011;30526;52.184;4.476;2023-08-07T02:35:28;23.47;;;3.90;;
44810;SDS011;30526;52.184;4.476;2023-08-07T02:37:54;27.88;;;3.67;;
44810;SDS011;30526;52.184;4.476;2023-08-07T02:40:20;11.32;;;2.72;;
44810;SDS011;30526;52.184;4.476;2023-08-07T02:42:46;12.07;;;2.13;;
44810;SDS011;30526;52.184;4.476;2023-08-07T02:45:12;11.13;;;2.30;;
44810;SDS011;30526;52.184;4.476;2023-08-07T02:47:38;12.93;;;1.95;;
44810;SDS011;30526;52.184;4.476;2023-08-07T02:50:05;14.95;;;2.97;;
44810;SDS011;30526;52.184;4.476;2023-08-07T02:52:31;8.32;;;2.10;;
44810;SDS011;30526;52.184;4.476;2023-08-07T02:54:57;13.90;;;2.25;;
44810;SDS011;30526;52.184;4.476;2023-08-07T02:57:23;14.20;;;2.00;;
44810;SDS011;30526;52.184;4.476;2023-08-07T02:59:50;11.02;;;1.90;;
44810;SDS011;30526;52.184;4.476;2023-08-07T03:02:16;6.22;;;1.73;;
44810;SDS011;30526;52.184;4.476;2023-08-07T03:04:42;10.18;;;2.33;;
44810;SDS011;30526;52.184;4.476;2023-08-07T03:07:08;16.90;;;2.33;;
44810;SDS011;30526;52.184;4.476;2023-08-07T03:09:34;10.00;;;1.95;;
44810;SDS011;30526;52.184;4.476;2023-08-07T03:12:00;12.93;;;3.00;;
44810;SDS011;30526;52.184;4.476;2023-08-07T03:14:28;11.90;;;2.30;;
44810;SDS011;30526;52.184;4.476;2023-08-07T03:16:55;10.07;;;2.40;;
44810;SDS011;30526;52.184;4.476;2023-08-07T03:19:21;14.05;;;2.42;;
44810;SDS011;30526;52.184;4.476;2023-08-07T03:21:47;12.55;;;3.17;;
44810;SDS011;30526;52.184;4.476;2023-08-07T03:24:13;16.50;;;2.65;;
44810;SDS011;30526;52.184;4.476;2023-08-07T03:26:39;16.38;;;2.90;;
44810;SDS011;30526;52.184;4.476;2023-08-07T03:29:06;12.05;;;2.38;;
44810;SDS011;30526;52.184;4.476;2023-08-07T03:31:31;25.00;;;3.17;;
44810;SDS011;30526;52.184;4.476;2023-08-07T03:33:57;13.15;;;2.45;;
44810;SDS011;30526;52.184;4.476;2023-08-07T03:36:23;10.55;;;1.95;;
44810;SDS011;30526;52.184;4.476;2023-08-07T03:38:50;12.43;;;2.20;;
44810;SDS011;30526;52.184;4.476;2023-08-07T03:41:16;17.95;;;2.08;;
44810;SDS011;30526;52.184;4.476;2023-08-07T03:43:42;11.70;;;2.47;;
44810;SDS011;30526;52.184;4.476;2023-08-07T03:46:08;15.70;;;2.67;;
44810;SDS011;30526;52.184;4.476;2023-08-07T03:48:33;13.50;;;2.78;;
44810;SDS011;30526;52.184;4.476;2023-08-07T03:51:06;14.45;;;3.15;;
44810;SDS011;30526;52.184;4.476;2023-08-07T03:53:36;14.48;;;2.72;;
44810;SDS011;30526;52.184;4.476;2023-08-07T03:56:02;10.15;;;2.53;;
44810;SDS011;30526;52.184;4.476;2023-08-07T03:58:29;13.77;;;2.13;;
44810;SDS011;30526;52.184;4.476;2023-08-07T04:00:55;8.73;;;2.08;;
44810;SDS011;30526;52.184;4.476;2023-08-07T04:03:21;20.85;;;3.42;;
44810;SDS011;30526;52.184;4.476;2023-08-07T04:05:47;19.33;;;2.75;;
44810;SDS011;30526;52.184;4.476;2023-08-07T04:08:17;18.08;;;2.90;;
44810;SDS011;30526;52.184;4.476;2023-08-07T04:10:43;11.73;;;2.20;;
44810;SDS011;30526;52.184;4.476;2023-08-07T04:13:09;17.15;;;2.92;;
44810;SDS011;30526;52.184;4.476;2023-08-07T04:15:35;12.35;;;2.58;;
44810;SDS011;30526;52.184;4.476;2023-08-07T04:18:01;11.57;;;1.83;;
44810;SDS011;30526;52.184;4.476;2023-08-07T04:20:27;12.93;;;2.05;;
44810;SDS011;30526;52.184;4.476;2023-08-07T04:22:53;10.82;;;2.17;;
44810;SDS011;30526;52.184;4.476;2023-08-07T04:25:19;12.35;;;2.25;;
44810;SDS011;30526;52.184;4.476;2023-08-07T04:27:45;18.20;;;3.42;;
44810;SDS011;30526;52.184;4.476;2023-08-07T04:30:11;16.58;;;3.38;;
44810;SDS011;30526;52.184;4.476;2023-08-07T04:32:37;12.32;;;2.30;;
44810;SDS011;30526;52.184;4.476;2023-08-07T04:35:03;15.30;;;2.92;;
44810;SDS011;30526;52.184;4.476;2023-08-07T04:37:29;12.95;;;2.80;;
44810;SDS011;30526;52.184;4.476;2023-08-07T04:39:56;7.50;;;2.03;;
44810;SDS011;30526;52.184;4.476;2023-08-07T04:42:22;11.45;;;2.20;;
44810;SDS011;30526;52.184;4.476;2023-08-07T04:44:48;19.83;;;3.13;;
44810;SDS011;30526;52.184;4.476;2023-08-07T04:47:14;18.45;;;3.03;;
44810;SDS011;30526;52.184;4.476;2023-08-07T04:49:40;13.82;;;2.58;;
44810;SDS011;30526;52.184;4.476;2023-08-07T04:52:06;21.83;;;2.95;;
44810;SDS011;30526;52.184;4.476;2023-08-07T04:54:32;9.38;;;2.70;;
44810;SDS011;30526;52.184;4.476;2023-08-07T04:56:58;21.27;;;3.25;;
44810;SDS011;30526;52.184;4.476;2023-08-07T04:59:24;24.23;;;3.17;;
44810;SDS011;30526;52.184;4.476;2023-08-07T05:01:50;22.92;;;3.28;;
44810;SDS011;30526;52.184;4.476;2023-08-07T05:04:16;24.15;;;3.47;;
44810;SDS011;30526;52.184;4.476;2023-08-07T05:06:42;18.77;;;3.42;;
44810;SDS011;30526;52.184;4.476;2023-08-07T05:09:08;15.15;;;3.47;;
44810;SDS011;30526;52.184;4.476;2023-08-07T05:11:34;11.80;;;2.80;;
44810;SDS011;30526;52.184;4.476;2023-08-07T05:14:00;19.10;;;3.10;;
44810;SDS011;30526;52.184;4.476;2023-08-07T05:16:26;17.95;;;3.25;;
44810;SDS011;30526;52.184;4.476;2023-08-07T05:18:52;16.08;;;3.10;;
44810;SDS011;30526;52.184;4.476;2023-08-07T05:21:18;17.65;;;3.10;;
44810;SDS011;30526;52.184;4.476;2023-08-07T05:23:44;18.58;;;3.28;;
44810;SDS011;30526;52.184;4.476;2023-08-07T05:26:10;17.45;;;2.80;;
44810;SDS011;30526;52.184;4.476;2023-08-07T05:28:36;21.75;;;4.03;;
44810;SDS011;30526;52.184;4.476;2023-08-07T05:31:02;18.33;;;3.17;;
44810;SDS011;30526;52.184;4.476;2023-08-07T05:33:28;23.85;;;3.22;;
44810;SDS011;30526;52.184;4.476;2023-08-07T05:35:54;11.68;;;3.45;;
44810;SDS011;30526;52.184;4.476;2023-08-07T05:38:20;18.50;;;3.53;;
44810;SDS011;30526;52.184;4.476;2023-08-07T05:40:47;16.52;;;3.28;;
44810;SDS011;30526;52.184;4.476;2023-08-07T05:43:13;23.70;;;3.42;;
44810;SDS011;30526;52.184;4.476;2023-08-07T05:45:39;21.35;;;4.60;;
44810;SDS011;30526;52.184;4.476;2023-08-07T05:48:05;20.85;;;4.20;;
44810;SDS011;30526;52.184;4.476;2023-08-07T05:50:32;11.35;;;2.17;;
44810;SDS011;30526;52.184;4.476;2023-08-07T05:52:58;18.63;;;3.35;;
44810;SDS011;30526;52.184;4.476;2023-08-07T05:55:24;20.63;;;3.67;;
44810;SDS011;30526;52.184;4.476;2023-08-07T05:57:50;19.80;;;3.83;;
44810;SDS011;30526;52.184;4.476;2023-08-07T06:00:16;17.02;;;3.45;;
44810;SDS011;30526;52.184;4.476;2023-08-07T06:02:44;21.90;;;4.00;;
44810;SDS011;30526;52.184;4.476;2023-08-07T06:05:10;32.17;;;5.75;;
44810;SDS011;30526;52.184;4.476;2023-08-07T06:07:39;18.25;;;3.55;;
44810;SDS011;30526;52.184;4.476;2023-08-07T06:10:05;30.92;;;4.15;;
44810;SDS011;30526;52.184;4.476;2023-08-07T06:12:31;25.27;;;3.97;;
44810;SDS011;30526;52.184;4.476;2023-08-07T06:14:57;20.10;;;3.60;;
44810;SDS011;30526;52.184;4.476;2023-08-07T06:17:23;22.40;;;3.67;;
44810;SDS011;30526;52.184;4.476;2023-08-07T06:19:49;32.00;;;3.78;;
44810;SDS011;30526;52.184;4.476;2023-08-07T06:22:15;20.08;;;3.63;;
44810;SDS011;30526;52.184;4.476;2023-08-07T06:24:42;15.77;;;2.70;;
44810;SDS011;30526;52.184;4.476;2023-08-07T06:27:08;23.67;;;3.80;;
44810;SDS011;30526;52.184;4.476;2023-08-07T06:29:34;16.52;;;3.53;;
44810;SDS011;30526;52.184;4.476;2023-08-07T06:32:00;15.95;;;3.47;;
44810;SDS011;30526;52.184;4.476;2023-08-07T06:34:26;14.48;;;3.03;;
44810;SDS011;30526;52.184;4.476;2023-08-07T06:36:53;10.15;;;2.75;;
44810;SDS011;30526;52.184;4.476;2023-08-07T06:39:19;14.68;;;3.20;;
44810;SDS011;30526;52.184;4.476;2023-08-07T06:41:45;12.70;;;3.03;;
44810;SDS011;30526;52.184;4.476;2023-08-07T06:44:11;14.80;;;2.90;;
44810;SDS011;30526;52.184;4.476;2023-08-07T06:46:37;15.18;;;3.05;;
44810;SDS011;30526;52.184;4.476;2023-08-07T06:49:03;21.55;;;3.03;;
44810;SDS011;30526;52.184;4.476;2023-08-07T06:51:29;15.75;;;3.00;;
44810;SDS011;30526;52.184;4.476;2023-08-07T06:53:55;14.38;;;2.72;;
44810;SDS011;30526;52.184;4.476;2023-08-07T06:56:21;13.43;;;2.90;;
44810;SDS011;30526;52.184;4.476;2023-08-07T06:58:47;11.38;;;2.65;;
44810;SDS011;30526;52.184;4.476;2023-08-07T07:01:13;14.10;;;3.17;;
44810;SDS011;30526;52.184;4.476;2023-08-07T07:03:39;11.93;;;3.50;;
44810;SDS011;30526;52.184;4.476;2023-08-07T07:06:05;16.67;;;2.45;;
44810;SDS011;30526;52.184;4.476;2023-08-07T07:08:31;18.00;;;2.53;;
44810;SDS011;30526;52.184;4.476;2023-08-07T07:10:57;12.90;;;2.33;;
44810;SDS011;30526;52.184;4.476;2023-08-07T07:13:24;9.00;;;2.38;;
44810;SDS011;30526;52.184;4.476;2023-08-07T07:15:53;14.13;;;2.30;;
44810;SDS011;30526;52.184;4.476;2023-08-07T07:18:20;10.82;;;2.50;;
44810;SDS011;30526;52.184;4.476;2023-08-07T07:20:46;9.52;;;1.70;;
44810;SDS011;30526;52.184;4.476;2023-08-07T07:23:12;15.45;;;2.10;;
44810;SDS011;30526;52.184;4.476;2023-08-07T07:25:38;7.90;;;1.85;;
44810;SDS011;30526;52.184;4.476;2023-08-07T07:28:04;11.18;;;2.47;;
44810;SDS011;30526;52.184;4.476;2023-08-07T07:30:30;10.75;;;1.80;;
44810;SDS011;30526;52.184;4.476;2023-08-07T07:32:56;14.48;;;2.08;;
44810;SDS011;30526;52.184;4.476;2023-08-07T07:35:22;12.80;;;2.67;;
44810;SDS011;30526;52.184;4.476;2023-08-07T07:37:48;16.35;;;2.50;;
44810;SDS011;30526;52.184;4.476;2023-08-07T07:40:14;10.43;;;1.98;;
44810;SDS011;30526;52.184;4.476;2023-08-07T07:42:40;14.45;;;2.30;;
44810;SDS011;30526;52.184;4.476;2023-08-07T07:45:06;18.00;;;2.33;;
44810;SDS011;30526;52.184;4.476;2023-08-07T07:47:32;11.02;;;1.88;;
44810;SDS011;30526;52.184;4.476;2023-08-07T07:50:05;10.25;;;2.40;;
44810;SDS011;30526;52.184;4.476;2023-08-07T07:52:32;11.95;;;2.10;;
44810;SDS011;30526;52.184;4.476;2023-08-07T07:54:58;10.98;;;2.50;;
44810;SDS011;30526;52.184;4.476;2023-08-07T07:57:24;15.27;;;2.10;;
44810;SDS011;30526;52.184;4.476;2023-08-07T07:59:51;8.40;;;1.77;;
44810;SDS011;30526;52.184;4.476;2023-08-07T08:02:17;19.00;;;2.30;;
44810;SDS011;30526;52.184;4.476;2023-08-07T08:04:43;10.77;;;2.17;;
44810;SDS011;30526;52.184;4.476;2023-08-07T08:07:09;7.90;;;1.85;;
44810;SDS011;30526;52.184;4.476;2023-08-07T08:09:35;14.15;;;3.13;;
44810;SDS011;30526;52.184;4.476;2023-08-07T08:12:01;12.18;;;2.13;;
44810;SDS011;30526;52.184;4.476;2023-08-07T08:14:27;10.43;;;2.25;;
44810;SDS011;30526;52.184;4.476;2023-08-07T08:16:53;10.57;;;2.20;;
44810;SDS011;30526;52.184;4.476;2023-08-07T08:19:19;9.10;;;2.13;;
44810;SDS011;30526;52.184;4.476;2023-08-07T08:21:45;11.73;;;2.08;;
44810;SDS011;30526;52.184;4.476;2023-08-07T08:24:11;11.93;;;2.22;;
44810;SDS011;30526;52.184;4.476;2023-08-07T08:26:37;9.63;;;2.00;;
44810;SDS011;30526;52.184;4.476;2023-08-07T08:29:03;10.05;;;2.28;;
44810;SDS011;30526;52.184;4.476;2023-08-07T08:31:30;8.75;;;2.00;;
44810;SDS011;30526;52.184;4.476;2023-08-07T08:33:56;10.70;;;2.00;;
44810;SDS011;30526;52.184;4.476;2023-08-07T08:36:22;13.55;;;2.00;;
44810;SDS011;30526;52.184;4.476;2023-08-07T08:38:48;5.97;;;1.50;;
44810;SDS011;30526;52.184;4.476;2023-08-07T08:41:16;6.60;;;1.83;;
44810;SDS011;30526;52.184;4.476;2023-08-07T08:43:42;10.20;;;2.00;;
44810;SDS011;30526;52.184;4.476;2023-08-07T08:46:10;18.17;;;2.42;;
44810;SDS011;30526;52.184;4.476;2023-08-07T08:48:37;13.13;;;2.63;;
44810;SDS011;30526;52.184;4.476;2023-08-07T08:51:04;10.27;;;1.90;;
44810;SDS011;30526;52.184;4.476;2023-08-07T08:53:31;8.75;;;2.22;;
44810;SDS011;30526;52.184;4.476;2023-08-07T08:55:57;7.38;;;1.67;;
44810;SDS011;30526;52.184;4.476;2023-08-07T08:58:24;8.18;;;1.83;;
44810;SDS011;30526;52.184;4.476;2023-08-07T09:00:50;9.80;;;2.10;;
44810;SDS011;30526;52.184;4.476;2023-08-07T09:03:18;8.40;;;2.17;;
44810;SDS011;30526;52.184;4.476;2023-08-07T09:05:44;7.90;;;2.35;;
44810;SDS011;30526;52.184;4.476;2023-08-07T09:08:11;8.77;;;1.80;;
44810;SDS011;30526;52.184;4.476;2023-08-07T09:10:37;11.27;;;2.15;;
44810;SDS011;30526;52.184;4.476;2023-08-07T09:13:03;7.75;;;1.67;;
44810;SDS011;30526;52.184;4.476;2023-08-07T09:15:33;10.68;;;2.20;;
44810;SDS011;30526;52.184;4.476;2023-08-07T09:18:00;8.13;;;2.30;;
44810;SDS011;30526;52.184;4.476;2023-08-07T09:20:26;8.13;;;1.45;;
44810;SDS011;30526;52.184;4.476;2023-08-07T09:22:53;9.85;;;1.75;;
44810;SDS011;30526;52.184;4.476;2023-08-07T09:25:26;9.25;;;1.92;;
44810;SDS011;30526;52.184;4.476;2023-08-07T09:27:54;9.48;;;2.50;;
44810;SDS011;30526;52.184;4.476;2023-08-07T09:30:21;7.65;;;1.90;;
44810;SDS011;30526;52.184;4.476;2023-08-07T09:32:50;11.02;;;2.17;;
44810;SDS011;30526;52.184;4.476;2023-08-07T09:35:16;13.95;;;2.95;;
44810;SDS011;30526;52.184;4.476;2023-08-07T09:37:46;9.63;;;2.22;;
44810;SDS011;30526;52.184;4.476;2023-08-07T09:40:12;8.98;;;1.77;;
44810;SDS011;30526;52.184;4.476;2023-08-07T09:42:40;13.88;;;2.50;;
44810;SDS011;30526;52.184;4.476;2023-08-07T09:45:28;11.00;;;2.47;;
44810;SDS011;30526;52.184;4.476;2023-08-07T09:47:58;10.68;;;1.95;;
44810;SDS011;30526;52.184;4.476;2023-08-07T09:50:25;8.27;;;1.55;;
44810;SDS011;30526;52.184;4.476;2023-08-07T09:52:52;8.88;;;2.15;;
44810;SDS011;30526;52.184;4.476;2023-08-07T09:55:18;12.10;;;1.80;;
44810;SDS011;30526;52.184;4.476;2023-08-07T09:57:44;8.40;;;1.98;;
44810;SDS011;30526;52.184;4.476;2023-08-07T10:00:11;9.65;;;2.60;;
44810;SDS011;30526;52.184;4.476;2023-08-07T10:02:40;5.90;;;1.67;;
44810;SDS011;30526;52.184;4.476;2023-08-07T10:05:07;7.38;;;1.23;;
44810;SDS011;30526;52.184;4.476;2023-08-07T10:07:33;9.80;;;1.52;;
44810;SDS011;30526;52.184;4.476;2023-08-07T10:10:00;5.50;;;1.57;;
44810;SDS011;30526;52.184;4.476;2023-08-07T10:12:26;8.20;;;2.05;;
44810;SDS011;30526;52.184;4.476;2023-08-07T10:14:53;8.15;;;1.77;;
44810;SDS011;30526;52.184;4.476;2023-08-07T10:17:21;6.13;;;1.77;;
44810;SDS011;30526;52.184;4.476;2023-08-07T10:19:48;7.32;;;1.63;;
44810;SDS011;30526;52.184;4.476;2023-08-07T10:22:20;8.80;;;2.13;;
44810;SDS011;30526;52.184;4.476;2023-08-07T10:24:47;11.77;;;2.17;;
44810;SDS011;30526;52.184;4.476;2023-08-07T10:27:17;5.57;;;2.03;;
44810;SDS011;30526;52.184;4.476;2023-08-07T10:29:45;8.82;;;1.63;;
44810;SDS011;30526;52.184;4.476;2023-08-07T10:32:12;12.18;;;2.25;;
44810;SDS011;30526;52.184;4.476;2023-08-07T10:34:38;7.40;;;1.95;;
44810;SDS011;30526;52.184;4.476;2023-08-07T10:37:07;5.57;;;1.58;;
44810;SDS011;30526;52.184;4.476;2023-08-07T10:39:34;10.10;;;1.90;;
44810;SDS011;30526;52.184;4.476;2023-08-07T10:42:00;8.10;;;1.70;;
44810;SDS011;30526;52.184;4.476;2023-08-07T10:44:30;8.55;;;1.80;;
44810;SDS011;30526;52.184;4.476;2023-08-07T10:46:57;12.13;;;1.80;;
44810;SDS011;30526;52.184;4.476;2023-08-07T10:52:20;13.15;;;1.90;;
44810;SDS011;30526;52.184;4.476;2023-08-07T10:54:49;8.35;;;1.80;;
44810;SDS011;30526;52.184;4.476;2023-08-07T10:57:16;11.55;;;2.08;;
44810;SDS011;30526;52.184;4.476;2023-08-07T11:02:11;9.73;;;1.77;;
44810;SDS011;30526;52.184;4.476;2023-08-07T11:04:38;9.20;;;1.75;;
44810;SDS011;30526;52.184;4.476;2023-08-07T11:07:04;10.25;;;2.40;;
44810;SDS011;30526;52.184;4.476;2023-08-07T11:09:31;7.45;;;1.83;;
44810;SDS011;30526;52.184;4.476;2023-08-07T11:11:59;6.15;;;1.63;;
44810;SDS011;30526;52.184;4.476;2023-08-07T11:14:25;6.70;;;1.90;;
44810;SDS011;30526;52.184;4.476;2023-08-07T11:16:51;6.97;;;1.50;;
44810;SDS011;30526;52.184;4.476;2023-08-07T11:19:18;7.17;;;1.80;;
44810;SDS011;30526;52.184;4.476;2023-08-07T11:21:44;7.25;;;1.60;;
44810;SDS011;30526;52.184;4.476;2023-08-07T11:24:13;11.50;;;1.73;;
44810;SDS011;30526;52.184;4.476;2023-08-07T11:26:44;4.78;;;1.65;;
44810;SDS011;30526;52.184;4.476;2023-08-07T11:29:10;6.72;;;1.70;;
44810;SDS011;30526;52.184;4.476;2023-08-07T11:31:36;3.58;;;1.33;;
44810;SDS011;30526;52.184;4.476;2023-08-07T11:34:02;7.07;;;1.48;;
44810;SDS011;30526;52.184;4.476;2023-08-07T11:36:28;10.50;;;1.85;;
44810;SDS011;30526;52.184;4.476;2023-08-07T11:38:54;6.78;;;2.10;;
44810;SDS011;30526;52.184;4.476;2023-08-07T11:41:21;7.03;;;1.90;;
44810;SDS011;30526;52.184;4.476;2023-08-07T11:43:47;8.10;;;1.70;;
44810;SDS011;30526;52.184;4.476;2023-08-07T11:46:14;9.77;;;1.90;;
44810;SDS011;30526;52.184;4.476;2023-08-07T11:48:41;6.63;;;1.75;;
44810;SDS011;30526;52.184;4.476;2023-08-07T11:51:07;4.70;;;1.42;;
44810;SDS011;30526;52.184;4.476;2023-08-07T11:53:37;4.07;;;1.55;;
44810;SDS011;30526;52.184;4.476;2023-08-07T11:56:07;3.78;;;1.20;;
44810;SDS011;30526;52.184;4.476;2023-08-07T11:58:39;11.18;;;1.42;;
44810;SDS011;30526;52.184;4.476;2023-08-07T12:01:09;5.90;;;1.58;;
44810;SDS011;30526;52.184;4.476;2023-08-07T12:03:36;3.75;;;1.60;;
44810;SDS011;30526;52.184;4.476;2023-08-07T12:06:06;7.82;;;1.95;;
44810;SDS011;30526;52.184;4.476;2023-08-07T12:08:36;3.45;;;1.40;;
44810;SDS011;30526;52.184;4.476;2023-08-07T12:11:03;5.20;;;1.48;;
44810;SDS011;30526;52.184;4.476;2023-08-07T12:13:30;8.43;;;1.75;;
44810;SDS011;30526;52.184;4.476;2023-08-07T12:15:57;6.45;;;1.80;;
44810;SDS011;30526;52.184;4.476;2023-08-07T12:18:25;5.35;;;1.80;;
44810;SDS011;30526;52.184;4.476;2023-08-07T12:20:52;5.65;;;1.65;;
44810;SDS011;30526;52.184;4.476;2023-08-07T12:23:20;5.32;;;1.42;;
44810;SDS011;30526;52.184;4.476;2023-08-07T12:25:47;9.38;;;2.05;;
44810;SDS011;30526;52.184;4.476;2023-08-07T12:28:13;4.55;;;1.88;;
44810;SDS011;30526;52.184;4.476;2023-08-07T12:30:39;7.43;;;1.65;;
44810;SDS011;30526;52.184;4.476;2023-08-07T12:33:05;9.67;;;2.03;;
44810;SDS011;30526;52.184;4.476;2023-08-07T12:35:32;8.65;;;2.15;;
44810;SDS011;30526;52.184;4.476;2023-08-07T12:37:59;8.48;;;1.83;;
44810;SDS011;30526;52.184;4.476;2023-08-07T12:40:25;5.47;;;2.00;;
44810;SDS011;30526;52.184;4.476;2023-08-07T12:42:51;5.18;;;1.75;;
44810;SDS011;30526;52.184;4.476;2023-08-07T12:45:17;6.80;;;1.83;;
44810;SDS011;30526;52.184;4.476;2023-08-07T12:47:44;4.68;;;1.42;;
44810;SDS011;30526;52.184;4.476;2023-08-07T12:50:10;4.68;;;1.52;;
44810;SDS011;30526;52.184;4.476;2023-08-07T12:52:36;2.75;;;1.40;;
44810;SDS011;30526;52.184;4.476;2023-08-07T12:55:03;5.03;;;1.77;;
44810;SDS011;30526;52.184;4.476;2023-08-07T12:57:30;2.78;;;1.83;;
44810;SDS011;30526;52.184;4.476;2023-08-07T12:59:56;4.43;;;1.50;;
44810;SDS011;30526;52.184;4.476;2023-08-07T13:02:23;6.88;;;2.00;;
44810;SDS011;30526;52.184;4.476;2023-08-07T13:04:49;8.52;;;1.80;;
44810;SDS011;30526;52.184;4.476;2023-08-07T13:09:41;7.28;;;1.88;;
44810;SDS011;30526;52.184;4.476;2023-08-07T13:12:07;5.45;;;2.00;;
44810;SDS011;30526;52.184;4.476;2023-08-07T13:14:33;8.52;;;2.15;;
44810;SDS011;30526;52.184;4.476;2023-08-07T13:16:59;6.93;;;2.50;;
44810;SDS011;30526;52.184;4.476;2023-08-07T13:19:25;5.88;;;1.63;;
44810;SDS011;30526;52.184;4.476;2023-08-07T13:21:51;8.45;;;2.13;;
44810;SDS011;30526;52.184;4.476;2023-08-07T13:24:17;8.80;;;1.67;;
44810;SDS011;30526;52.184;4.476;2023-08-07T13:26:43;3.53;;;1.93;;
44810;SDS011;30526;52.184;4.476;2023-08-07T13:29:12;2.60;;;1.63;;
44810;SDS011;30526;52.184;4.476;2023-08-07T13:31:38;4.93;;;2.00;;
44810;SDS011;30526;52.184;4.476;2023-08-07T13:34:06;4.35;;;1.77;;
44810;SDS011;30526;52.184;4.476;2023-08-07T13:36:36;5.20;;;1.65;;
44810;SDS011;30526;52.184;4.476;2023-08-07T13:39:03;2.92;;;1.60;;
44810;SDS011;30526;52.184;4.476;2023-08-07T13:41:29;6.63;;;2.47;;
44810;SDS011;30526;52.184;4.476;2023-08-07T13:43:55;3.33;;;1.77;;
44810;SDS011;30526;52.184;4.476;2023-08-07T13:46:21;5.30;;;1.67;;
44810;SDS011;30526;52.184;4.476;2023-08-07T13:48:47;4.65;;;1.60;;
44810;SDS011;30526;52.184;4.476;2023-08-07T13:51:16;5.25;;;1.60;;
44810;SDS011;30526;52.184;4.476;2023-08-07T13:53:45;6.97;;;1.88;;
44810;SDS011;30526;52.184;4.476;2023-08-07T13:56:11;5.10;;;1.92;;
44810;SDS011;30526;52.184;4.476;2023-08-07T13:58:41;7.20;;;1.80;;
44810;SDS011;30526;52.184;4.476;2023-08-07T14:01:07;3.03;;;1.70;;
44810;SDS011;30526;52.184;4.476;2023-08-07T14:03:34;9.40;;;1.80;;
44810;SDS011;30526;52.184;4.476;2023-08-07T14:06:00;6.50;;;1.67;;
44810;SDS011;30526;52.184;4.476;2023-08-07T14:08:26;4.55;;;1.90;;
44810;SDS011;30526;52.184;4.476;2023-08-07T14:10:52;3.85;;;1.67;;
44810;SDS011;30526;52.184;4.476;2023-08-07T14:13:18;5.80;;;1.90;;
44810;SDS011;30526;52.184;4.476;2023-08-07T14:15:44;4.55;;;1.67;;
44810;SDS011;30526;52.184;4.476;2023-08-07T14:18:11;6.35;;;2.05;;
44810;SDS011;30526;52.184;4.476;2023-08-07T14:20:39;3.25;;;2.13;;
44810;SDS011;30526;52.184;4.476;2023-08-07T14:23:06;7.78;;;2.22;;
44810;SDS011;30526;52.184;4.476;2023-08-07T14:25:32;2.97;;;1.90;;
44810;SDS011;30526;52.184;4.476;2023-08-07T14:27:58;6.35;;;1.88;;
44810;SDS011;30526;52.184;4.476;2023-08-07T14:30:24;6.85;;;2.15;;
44810;SDS011;30526;52.184;4.476;2023-08-07T14:32:50;5.43;;;2.15;;
44810;SDS011;30526;52.184;4.476;2023-08-07T14:35:16;4.10;;;2.03;;
44810;SDS011;30526;52.184;4.476;2023-08-07T14:37:42;9.13;;;2.13;;
44810;SDS011;30526;52.184;4.476;2023-08-07T14:40:08;5.65;;;2.42;;
44810;SDS011;30526;52.184;4.476;2023-08-07T14:42:35;2.83;;;2.00;;
44810;SDS011;30526;52.184;4.476;2023-08-07T14:45:01;5.00;;;2.10;;
44810;SDS011;30526;52.184;4.476;2023-08-07T14:47:27;7.77;;;2.37;;
44810;SDS011;30526;52.184;4.476;2023-08-07T14:49:53;3.30;;;1.73;;